Aviation Digital Data Service (ADDS)

Output produced by METARs form (2106 UTC 24 March 2019)
found at http://www.aviationweather.gov/metar/data/
 
TAF MDST 241000Z 2412/2512 VRB04KT 9999 SCT016 
     TEMPO 2412/2414 5000 BR BKN014 
     BECMG 2414/ 2416 12012KT
       
TAF MDPP 241600Z 2418/2518 09010KT 9999 SCT020 
     PROB30 2418/2422 8000 -SH SCT016
       
TAF MDLR 241600Z 2418/2518 17012KT 9999 SCT022 
     BECMG 2501/2503 00000KT 
     PROB30 2512/2518 8000 -RA BKN016 SCT070
       
TAF MDSD 241600Z 2418/2518 13010KT 9999 SCT020 
     PROB30 2418/2500 7000 -SH BKN016 SCT070
       
TAF MDBH 241600Z 2418/2518 16006KT 9999 SCT023 
     PROB30 2502/2506 8000 -RA FEW018CB SCT020 SCT070 
     BECMG 2501/2504 00000KT
       
TAF MDPC 241600Z 2418/2518 13010KT 9999 SCT025 SCT080 
     PROB30 2422/2504 8000 -SH BKN018 SCT070